Amherst, Canada
Current Conditions -  °F | °C
As of 12:00 PM on Wednesday 22 Oct 2014 (Local Time) from CYQM Reporting Station
Broken Clouds Broken Clouds  
Wind Chill: 50°   Ceiling: 11000
Heat Index: 50°   Visibility: 15mi
Dew Point: 41°   Wind: 20mph
Humidity: 71%   Direction: 50°NE
Pressure: 30.36"   Gusts: 28mph
Location:  45.85°N, 64.27°W
Report Text: CYQM 221500Z 05017G24KT 15SM SCT022 BKN110 10/05 A3036 RMK SC3AC4 SLP281
Loading
Personal Weather Stations






























Interactive Weather Map
Tropical Storm Tracking
New forecast layout! Learn more

10-Day Weather Forecast

Advertisements
Track Severe Weather on mobile